Station History

Weather Underground - logo

Station Historical Data
Daily Summary for February 10, 2018 Units:  Both    English   Metric
« Previous Day
Next Day »
Daily Weekly Monthly Yearly Custom
  High: Low: Average:
Temperature: 72.4 °F /  22.4 °C 45.0 °F /  7.2 °C 57.9 °F /  14.4 °C
Dew Point: 52.4 °F /  11.3 °C 41.0 °F /  5 °C 46.4 °F /  8 °C
Humidity: 93 % 45 % 68 %
Wind Speed: 5.8 mph /  9.3 km/h - 0.7 mph /  1.1 km/h
Wind Gust: 5.8 mph /  9.3 km/h - -
Wind:- - West
Pressure: 29.96 in /  1014.4 hPa 29.80 in /  1009 hPa -
Precipitation: 0.00 in /  0 mm    
Historical Graphs
 
 
Tabular Data for February 10, 2018
Time Temperature Dew Point Pressure Wind Wind Speed Wind Gust Humidity Rainfall Rate (Hourly)
00:00 51.5 °F /  10.8 °C 47.1 °F /  8.4 °C 29.96 in /  1014.4 hPa Calm     85 % 0.00 in /  0 mm
00:05 51.9 °F /  11.1 °C 47.2 °F /  8.4 °C 29.96 in /  1014.4 hPa Calm     84 % 0.00 in /  0 mm
00:10 52.1 °F /  11.2 °C 47.1 °F /  8.4 °C 29.96 in /  1014.4 hPa Calm     83 % 0.00 in /  0 mm
00:15 52.0 °F /  11.1 °C 47.0 °F /  8.3 °C 29.96 in /  1014.4 hPa Calm     83 % 0.00 in /  0 mm
00:20 51.9 °F /  11.1 °C 46.9 °F /  8.3 °C 29.95 in /  1014.1 hPa Calm     83 % 0.00 in /  0 mm
00:25 51.6 °F /  10.9 °C 46.3 °F /  7.9 °C 29.95 in /  1014.1 hPa Calm     82 % 0.00 in /  0 mm
00:30 50.9 °F /  10.5 °C 45.9 °F /  7.7 °C 29.95 in /  1014.1 hPa Calm     83 % 0.00 in /  0 mm
00:35 50.4 °F /  10.2 °C 45.7 °F /  7.6 °C 29.95 in /  1014.1 hPa Calm     84 % 0.00 in /  0 mm
00:40 49.8 °F /  9.9 °C 45.5 °F /  7.5 °C 29.95 in /  1014.1 hPa Calm     85 % 0.00 in /  0 mm
00:45 49.4 °F /  9.7 °C 45.4 °F /  7.4 °C 29.95 in /  1014.1 hPa Calm     86 % 0.00 in /  0 mm
00:50 48.9 °F /  9.4 °C 44.9 °F /  7.2 °C 29.96 in /  1014.4 hPa Calm     86 % 0.00 in /  0 mm
00:55 48.7 °F /  9.3 °C 45.0 °F /  7.2 °C 29.95 in /  1014.1 hPa Calm     87 % 0.00 in /  0 mm
01:00 48.8 °F /  9.3 °C 45.1 °F /  7.3 °C 29.96 in /  1014.4 hPa Calm     87 % 0.00 in /  0 mm
01:05 48.8 °F /  9.3 °C 45.4 °F /  7.4 °C 29.95 in /  1014.1 hPa Calm     88 % 0.00 in /  0 mm
01:10 48.8 °F /  9.3 °C 45.4 °F /  7.4 °C 29.96 in /  1014.4 hPa Calm     88 % 0.00 in /  0 mm
01:15 48.9 °F /  9.4 °C 45.5 °F /  7.5 °C 29.96 in /  1014.4 hPa Calm     88 % 0.00 in /  0 mm
01:20 49.4 °F /  9.7 °C 46.3 °F /  7.9 °C 29.96 in /  1014.4 hPa Calm     89 % 0.00 in /  0 mm
01:25 49.8 °F /  9.9 °C 46.1 °F /  7.8 °C 29.95 in /  1014.1 hPa Calm     87 % 0.00 in /  0 mm
01:30 49.6 °F /  9.8 °C 45.3 °F /  7.4 °C 29.95 in /  1014.1 hPa East 3.5 mph /  5.6 km/h 3.5 mph /  5.6 km/h 85 % 0.00 in /  0 mm
01:36 48.6 °F /  9.2 °C 44.3 °F /  6.8 °C 29.95 in /  1014.1 hPa East 1.0 mph /  1.6 km/h 1.0 mph /  1.6 km/h 85 % 0.00 in /  0 mm
01:41 48.1 °F /  8.9 °C 44.4 °F /  6.9 °C 29.95 in /  1014.1 hPa Calm     87 % 0.00 in /  0 mm
01:46 47.8 °F /  8.8 °C 44.4 °F /  6.9 °C 29.94 in /  1013.8 hPa Calm     88 % 0.00 in /  0 mm
01:51 47.6 °F /  8.7 °C 44.5 °F /  6.9 °C 29.94 in /  1013.8 hPa Calm     89 % 0.00 in /  0 mm
01:56 47.5 °F /  8.6 °C 44.4 °F /  6.9 °C 29.94 in /  1013.8 hPa Calm     89 % 0.00 in /  0 mm
02:01 47.4 °F /  8.6 °C 44.3 °F /  6.8 °C 29.94 in /  1013.8 hPa Calm     89 % 0.00 in /  0 mm
02:06 47.3 °F /  8.5 °C 44.2 °F /  6.8 °C 29.94 in /  1013.8 hPa Calm     89 % 0.00 in /  0 mm
02:11 47.2 °F /  8.4 °C 44.4 °F /  6.9 °C 29.94 in /  1013.8 hPa Calm     90 % 0.00 in /  0 mm
02:16 47.3 °F /  8.5 °C 44.5 °F /  6.9 °C 29.94 in /  1013.8 hPa Calm     90 % 0.00 in /  0 mm
02:21 47.3 °F /  8.5 °C 44.2 °F /  6.8 °C 29.94 in /  1013.8 hPa Calm     89 % 0.00 in /  0 mm
02:26 47.2 °F /  8.4 °C 44.4 °F /  6.9 °C 29.94 in /  1013.8 hPa Calm     90 % 0.00 in /  0 mm
02:31 47.3 °F /  8.5 °C 44.8 °F /  7.1 °C 29.94 in /  1013.8 hPa Calm     91 % 0.00 in /  0 mm
02:36 47.4 °F /  8.6 °C 44.6 °F /  7 °C 29.94 in /  1013.8 hPa Calm     90 % 0.00 in /  0 mm
02:41 47.3 °F /  8.5 °C 44.5 °F /  6.9 °C 29.94 in /  1013.8 hPa Calm     90 % 0.00 in /  0 mm
02:46 47.3 °F /  8.5 °C 44.5 °F /  6.9 °C 29.94 in /  1013.8 hPa Calm     90 % 0.00 in /  0 mm
02:51 47.3 °F /  8.5 °C 44.5 °F /  6.9 °C 29.94 in /  1013.8 hPa Calm     90 % 0.00 in /  0 mm
02:56 47.4 °F /  8.6 °C 44.9 °F /  7.2 °C 29.94 in /  1013.8 hPa Calm     91 % 0.00 in /  0 mm
03:01 47.4 °F /  8.6 °C 44.9 °F /  7.2 °C 29.93 in /  1013.4 hPa Calm     91 % 0.00 in /  0 mm
03:06 47.3 °F /  8.5 °C 44.2 °F /  6.8 °C 29.93 in /  1013.4 hPa Calm     89 % 0.00 in /  0 mm
03:11 46.9 °F /  8.3 °C 43.8 °F /  6.6 °C 29.93 in /  1013.4 hPa Calm     89 % 0.00 in /  0 mm
03:16 46.5 °F /  8.1 °C 43.4 °F /  6.3 °C 29.93 in /  1013.4 hPa Calm     89 % 0.00 in /  0 mm
03:21 46.3 °F /  7.9 °C 43.5 °F /  6.4 °C 29.93 in /  1013.4 hPa Calm     90 % 0.00 in /  0 mm
03:26 46.2 °F /  7.9 °C 43.4 °F /  6.3 °C 29.93 in /  1013.4 hPa Calm     90 % 0.00 in /  0 mm
03:31 46.3 °F /  7.9 °C 43.8 °F /  6.6 °C 29.92 in /  1013.1 hPa Calm     91 % 0.00 in /  0 mm
03:36 46.2 °F /  7.9 °C 43.4 °F /  6.3 °C 29.92 in /  1013.1 hPa Calm     90 % 0.00 in /  0 mm
03:41 46.1 °F /  7.8 °C 43.3 °F /  6.3 °C 29.92 in /  1013.1 hPa Calm     90 % 0.00 in /  0 mm
03:46 45.9 °F /  7.7 °C 43.1 °F /  6.2 °C 29.92 in /  1013.1 hPa Calm     90 % 0.00 in /  0 mm
03:51 45.9 °F /  7.7 °C 43.4 °F /  6.3 °C 29.92 in /  1013.1 hPa Calm     91 % 0.00 in /  0 mm
03:56 46.1 °F /  7.8 °C 43.6 °F /  6.4 °C 29.92 in /  1013.1 hPa Calm     91 % 0.00 in /  0 mm
04:01 46.5 °F /  8.1 °C 44.0 °F /  6.7 °C 29.92 in /  1013.1 hPa Calm     91 % 0.00 in /  0 mm
04:06 46.6 °F /  8.1 °C 43.8 °F /  6.6 °C 29.92 in /  1013.1 hPa Calm     90 % 0.00 in /  0 mm
04:11 46.4 °F /  8 °C 43.6 °F /  6.4 °C 29.92 in /  1013.1 hPa Calm     90 % 0.00 in /  0 mm
04:16 46.3 °F /  7.9 °C 43.5 °F /  6.4 °C 29.92 in /  1013.1 hPa Calm     90 % 0.00 in /  0 mm
04:21 45.9 °F /  7.7 °C 42.8 °F /  6 °C 29.92 in /  1013.1 hPa Calm     89 % 0.00 in /  0 mm
04:26 45.4 °F /  7.4 °C 42.3 °F /  5.7 °C 29.93 in /  1013.4 hPa Calm     89 % 0.00 in /  0 mm
04:31 45.2 °F /  7.3 °C 42.4 °F /  5.8 °C 29.93 in /  1013.4 hPa Calm     90 % 0.00 in /  0 mm
04:36 45.2 °F /  7.3 °C 42.7 °F /  5.9 °C 29.93 in /  1013.4 hPa Calm     91 % 0.00 in /  0 mm
04:41 45.4 °F /  7.4 °C 42.9 °F /  6.1 °C 29.93 in /  1013.4 hPa Calm     91 % 0.00 in /  0 mm
04:46 45.4 °F /  7.4 °C 42.9 °F /  6.1 °C 29.93 in /  1013.4 hPa Calm     91 % 0.00 in /  0 mm
04:51 45.4 °F /  7.4 °C 42.9 °F /  6.1 °C 29.93 in /  1013.4 hPa Calm     91 % 0.00 in /  0 mm
04:53 45.4 °F /  7.4 °C 42.9 °F /  6.1 °C 29.93 in /  1013.4 hPa Calm     91 % 0.00 in /  0 mm
04:58 45.4 °F /  7.4 °C 42.9 °F /  6.1 °C 29.93 in /  1013.4 hPa Calm     91 % 0.00 in /  0 mm
05:03 45.4 °F /  7.4 °C 42.9 °F /  6.1 °C 29.93 in /  1013.4 hPa Calm     91 % 0.00 in /  0 mm
05:08 45.4 °F /  7.4 °C 43.2 °F /  6.2 °C 29.93 in /  1013.4 hPa Calm     92 % 0.00 in /  0 mm
05:13 45.4 °F /  7.4 °C 43.2 °F /  6.2 °C 29.92 in /  1013.1 hPa Calm     92 % 0.00 in /  0 mm
05:18 45.5 °F /  7.5 °C 43.3 °F /  6.3 °C 29.92 in /  1013.1 hPa Calm     92 % 0.00 in /  0 mm
05:23 45.6 °F /  7.6 °C 43.4 °F /  6.3 °C 29.93 in /  1013.4 hPa Calm     92 % 0.00 in /  0 mm
05:28 45.9 °F /  7.7 °C 44.0 °F /  6.7 °C 29.92 in /  1013.1 hPa Calm     93 % 0.00 in /  0 mm
05:33 46.3 °F /  7.9 °C 44.4 °F /  6.9 °C 29.93 in /  1013.4 hPa Calm     93 % 0.00 in /  0 mm
05:38 46.5 °F /  8.1 °C 44.0 °F /  6.7 °C 29.92 in /  1013.1 hPa Calm     91 % 0.00 in /  0 mm
05:43 46.5 °F /  8.1 °C 44.0 °F /  6.7 °C 29.92 in /  1013.1 hPa Calm     91 % 0.00 in /  0 mm
05:48 46.5 °F /  8.1 °C 44.0 °F /  6.7 °C 29.93 in /  1013.4 hPa Calm     91 % 0.00 in /  0 mm
05:53 46.1 °F /  7.8 °C 43.0 °F /  6.1 °C 29.93 in /  1013.4 hPa Calm     89 % 0.00 in /  0 mm
05:58 45.4 °F /  7.4 °C 42.3 °F /  5.7 °C 29.93 in /  1013.4 hPa Calm     89 % 0.00 in /  0 mm
06:03 45.0 °F /  7.2 °C 42.2 °F /  5.7 °C 29.93 in /  1013.4 hPa Calm     90 % 0.00 in /  0 mm
06:08 45.1 °F /  7.3 °C 42.9 °F /  6.1 °C 29.93 in /  1013.4 hPa Calm     92 % 0.00 in /  0 mm
06:13 45.5 °F /  7.5 °C 43.3 °F /  6.3 °C 29.93 in /  1013.4 hPa Calm     92 % 0.00 in /  0 mm
06:18 46.0 °F /  7.8 °C 43.8 °F /  6.6 °C 29.93 in /  1013.4 hPa Calm     92 % 0.00 in /  0 mm
06:23 46.0 °F /  7.8 °C 43.5 °F /  6.4 °C 29.93 in /  1013.4 hPa Calm     91 % 0.00 in /  0 mm
06:28 45.7 °F /  7.6 °C 42.9 °F /  6.1 °C 29.94 in /  1013.8 hPa Calm     90 % 0.00 in /  0 mm
06:33 45.2 °F /  7.3 °C 42.4 °F /  5.8 °C 29.94 in /  1013.8 hPa Calm     90 % 0.00 in /  0 mm
06:38 45.0 °F /  7.2 °C 42.5 °F /  5.8 °C 29.93 in /  1013.4 hPa Calm     91 % 0.00 in /  0 mm
06:43 45.1 °F /  7.3 °C 42.9 °F /  6.1 °C 29.94 in /  1013.8 hPa Calm     92 % 0.00 in /  0 mm
06:48 45.6 °F /  7.6 °C 43.4 °F /  6.3 °C 29.94 in /  1013.8 hPa Calm     92 % 0.00 in /  0 mm
06:53 45.7 °F /  7.6 °C 43.5 °F /  6.4 °C 29.94 in /  1013.8 hPa Calm     92 % 0.00 in /  0 mm
06:58 45.4 °F /  7.4 °C 42.9 °F /  6.1 °C 29.94 in /  1013.8 hPa Calm     91 % 0.00 in /  0 mm
07:03 45.2 °F /  7.3 °C 42.7 °F /  5.9 °C 29.94 in /  1013.8 hPa Calm     91 % 0.00 in /  0 mm
07:08 45.1 °F /  7.3 °C 42.6 °F /  5.9 °C 29.94 in /  1013.8 hPa Calm     91 % 0.00 in /  0 mm
07:13 45.1 °F /  7.3 °C 42.6 °F /  5.9 °C 29.94 in /  1013.8 hPa Calm     91 % 0.00 in /  0 mm
07:18 45.2 °F /  7.3 °C 43.0 °F /  6.1 °C 29.94 in /  1013.8 hPa Calm     92 % 0.00 in /  0 mm
07:23 45.6 °F /  7.6 °C 43.4 °F /  6.3 °C 29.94 in /  1013.8 hPa East 1.2 mph /  1.9 km/h   92 % 0.00 in /  0 mm
07:28 46.0 °F /  7.8 °C 43.8 °F /  6.6 °C 29.94 in /  1013.8 hPa Calm     92 % 0.00 in /  0 mm
07:33 46.6 °F /  8.1 °C 44.4 °F /  6.9 °C 29.94 in /  1013.8 hPa East 1.2 mph /  1.9 km/h   92 % 0.00 in /  0 mm
07:38 47.2 °F /  8.4 °C 44.7 °F /  7.1 °C 29.94 in /  1013.8 hPa Calm     91 % 0.00 in /  0 mm
07:44 47.8 °F /  8.8 °C 45.0 °F /  7.2 °C 29.94 in /  1013.8 hPa Calm     90 % 0.00 in /  0 mm
07:49 48.2 °F /  9 °C 45.1 °F /  7.3 °C 29.95 in /  1014.1 hPa Calm     89 % 0.00 in /  0 mm
07:54 48.8 °F /  9.3 °C 45.7 °F /  7.6 °C 29.95 in /  1014.1 hPa Calm     89 % 0.00 in /  0 mm
07:59 49.3 °F /  9.6 °C 45.9 °F /  7.7 °C 29.94 in /  1013.8 hPa Calm     88 % 0.00 in /  0 mm
08:04 50.0 °F /  10 °C 46.6 °F /  8.1 °C 29.95 in /  1014.1 hPa Calm     88 % 0.00 in /  0 mm
08:09 50.5 °F /  10.3 °C 46.8 °F /  8.2 °C 29.94 in /  1013.8 hPa Calm     87 % 0.00 in /  0 mm
08:14 51.0 °F /  10.6 °C 47.3 °F /  8.5 °C 29.94 in /  1013.8 hPa Calm     87 % 0.00 in /  0 mm
08:19 51.7 °F /  10.9 °C 47.6 °F /  8.7 °C 29.94 in /  1013.8 hPa Calm     86 % 0.00 in /  0 mm
08:24 52.5 °F /  11.4 °C 47.8 °F /  8.8 °C 29.94 in /  1013.8 hPa Calm     84 % 0.00 in /  0 mm
08:29 53.3 °F /  11.8 °C 48.3 °F /  9.1 °C 29.94 in /  1013.8 hPa Calm     83 % 0.00 in /  0 mm
08:34 53.9 °F /  12.2 °C 48.2 °F /  9 °C 29.94 in /  1013.8 hPa Calm     81 % 0.00 in /  0 mm
08:39 54.7 °F /  12.6 °C 49.0 °F /  9.4 °C 29.94 in /  1013.8 hPa Calm     81 % 0.00 in /  0 mm
08:44 55.4 °F /  13 °C 49.3 °F /  9.6 °C 29.94 in /  1013.8 hPa Calm     80 % 0.00 in /  0 mm
08:49 56.1 °F /  13.4 °C 49.7 °F /  9.8 °C 29.94 in /  1013.8 hPa Calm     79 % 0.00 in /  0 mm
08:54 56.7 °F /  13.7 °C 49.9 °F /  9.9 °C 29.94 in /  1013.8 hPa Calm     78 % 0.00 in /  0 mm
08:59 57.5 °F /  14.2 °C 50.0 °F /  10 °C 29.94 in /  1013.8 hPa NNE 1.0 mph /  1.6 km/h 1.0 mph /  1.6 km/h 76 % 0.00 in /  0 mm
09:04 58.3 °F /  14.6 °C 50.0 °F /  10 °C 29.94 in /  1013.8 hPa Calm     74 % 0.00 in /  0 mm
09:09 59.0 °F /  15 °C 50.0 °F /  10 °C 29.94 in /  1013.8 hPa Calm     72 % 0.00 in /  0 mm
09:14 59.8 °F /  15.4 °C 50.4 °F /  10.2 °C 29.94 in /  1013.8 hPa Calm     71 % 0.00 in /  0 mm
09:19 60.8 °F /  16 °C 50.2 °F /  10.1 °C 29.93 in /  1013.4 hPa Calm     68 % 0.00 in /  0 mm
09:24 61.4 °F /  16.3 °C 49.9 °F /  9.9 °C 29.93 in /  1013.4 hPa Calm     66 % 0.00 in /  0 mm
09:29 62.0 °F /  16.7 °C 49.7 °F /  9.8 °C 29.93 in /  1013.4 hPa Calm     64 % 0.00 in /  0 mm
09:34 62.4 °F /  16.9 °C 50.1 °F /  10.1 °C 29.93 in /  1013.4 hPa Calm     64 % 0.00 in /  0 mm
09:39 62.8 °F /  17.1 °C 48.7 °F /  9.3 °C 29.93 in /  1013.4 hPa Calm     60 % 0.00 in /  0 mm
09:44 63.4 °F /  17.4 °C 49.3 °F /  9.6 °C 29.93 in /  1013.4 hPa Calm     60 % 0.00 in /  0 mm
09:49 63.7 °F /  17.6 °C 48.6 °F /  9.2 °C 29.93 in /  1013.4 hPa Calm     58 % 0.00 in /  0 mm
09:54 64.2 °F /  17.9 °C 48.2 °F /  9 °C 29.93 in /  1013.4 hPa Calm     56 % 0.00 in /  0 mm
09:59 64.5 °F /  18.1 °C 48.9 °F /  9.4 °C 29.92 in /  1013.1 hPa Calm     57 % 0.00 in /  0 mm
10:04 65.1 °F /  18.4 °C 49.5 °F /  9.7 °C 29.93 in /  1013.4 hPa Calm     57 % 0.00 in /  0 mm
10:09 65.4 °F /  18.6 °C 49.3 °F /  9.6 °C 29.93 in /  1013.4 hPa Calm     56 % 0.00 in /  0 mm
10:14 65.7 °F /  18.7 °C 50.0 °F /  10 °C 29.92 in /  1013.1 hPa Calm     57 % 0.00 in /  0 mm
10:19 65.9 °F /  18.8 °C 49.3 °F /  9.6 °C 29.92 in /  1013.1 hPa Calm     55 % 0.00 in /  0 mm
10:24 66.7 °F /  19.3 °C 49.5 °F /  9.7 °C 29.92 in /  1013.1 hPa Calm     54 % 0.00 in /  0 mm
10:29 66.8 °F /  19.3 °C 49.6 °F /  9.8 °C 29.92 in /  1013.1 hPa Calm     54 % 0.00 in /  0 mm
10:34 67.1 °F /  19.5 °C 49.9 °F /  9.9 °C 29.92 in /  1013.1 hPa West 1.2 mph /  1.9 km/h 1.2 mph /  1.9 km/h 54 % 0.00 in /  0 mm
10:39 67.7 °F /  19.8 °C 49.9 °F /  9.9 °C 29.91 in /  1012.8 hPa Calm     53 % 0.00 in /  0 mm
10:44 68.2 °F /  20.1 °C 48.8 °F /  9.3 °C 29.91 in /  1012.8 hPa NNW 1.2 mph /  1.9 km/h 1.2 mph /  1.9 km/h 50 % 0.00 in /  0 mm
10:49 68.7 °F /  20.4 °C 49.3 °F /  9.6 °C 29.91 in /  1012.8 hPa SSE 2.3 mph /  3.7 km/h 2.3 mph /  3.7 km/h 50 % 0.00 in /  0 mm
10:54 69.2 °F /  20.7 °C 49.2 °F /  9.6 °C 29.91 in /  1012.8 hPa Calm     49 % 0.00 in /  0 mm
10:59 69.0 °F /  20.6 °C 49.0 °F /  9.4 °C 29.91 in /  1012.8 hPa West 1.2 mph /  1.9 km/h 1.2 mph /  1.9 km/h 49 % 0.00 in /  0 mm
11:04 68.7 °F /  20.4 °C 48.8 °F /  9.3 °C 29.91 in /  1012.8 hPa NW 2.3 mph /  3.7 km/h   49 % 0.00 in /  0 mm
11:09 68.9 °F /  20.5 °C 48.9 °F /  9.4 °C 29.90 in /  1012.4 hPa Calm     49 % 0.00 in /  0 mm
11:14 69.1 °F /  20.6 °C 49.1 °F /  9.5 °C 29.90 in /  1012.4 hPa North 1.2 mph /  1.9 km/h 1.2 mph /  1.9 km/h 49 % 0.00 in /  0 mm
11:22 69.4 °F /  20.8 °C 49.4 °F /  9.7 °C 29.90 in /  1012.4 hPa NW 2.3 mph /  3.7 km/h 2.3 mph /  3.7 km/h 49 % 0.00 in /  0 mm
11:27 69.6 °F /  20.9 °C 50.7 °F /  10.4 °C 29.90 in /  1012.4 hPa SSW 1.2 mph /  1.9 km/h 1.2 mph /  1.9 km/h 51 % 0.00 in /  0 mm
11:32 70.4 °F /  21.3 °C 50.3 °F /  10.2 °C 29.89 in /  1012.1 hPa Calm     49 % 0.00 in /  0 mm
11:37 70.7 °F /  21.5 °C 51.1 °F /  10.6 °C 29.89 in /  1012.1 hPa Calm     50 % 0.00 in /  0 mm
11:42 70.9 °F /  21.6 °C 50.2 °F /  10.1 °C 29.88 in /  1011.7 hPa NW 1.2 mph /  1.9 km/h   48 % 0.00 in /  0 mm
11:47 71.0 °F /  21.7 °C 50.3 °F /  10.2 °C 29.88 in /  1011.7 hPa NW 1.2 mph /  1.9 km/h 1.2 mph /  1.9 km/h 48 % 0.00 in /  0 mm
11:52 71.2 °F /  21.8 °C 49.9 °F /  9.9 °C 29.88 in /  1011.7 hPa WNW 1.2 mph /  1.9 km/h   47 % 0.00 in /  0 mm
11:57 71.3 °F /  21.8 °C 50.0 °F /  10 °C 29.87 in /  1011.4 hPa NW 2.3 mph /  3.7 km/h 2.3 mph /  3.7 km/h 47 % 0.00 in /  0 mm
12:02 71.1 °F /  21.7 °C 49.8 °F /  9.9 °C 29.87 in /  1011.4 hPa North 1.2 mph /  1.9 km/h 1.2 mph /  1.9 km/h 47 % 0.00 in /  0 mm
12:07 71.4 °F /  21.9 °C 51.2 °F /  10.7 °C 29.87 in /  1011.4 hPa NW 2.3 mph /  3.7 km/h 2.3 mph /  3.7 km/h 49 % 0.00 in /  0 mm
12:12 71.3 °F /  21.8 °C 50.0 °F /  10 °C 29.87 in /  1011.4 hPa NW 2.3 mph /  3.7 km/h 2.3 mph /  3.7 km/h 47 % 0.00 in /  0 mm
12:17 71.1 °F /  21.7 °C 50.4 °F /  10.2 °C 29.87 in /  1011.4 hPa NW 2.3 mph /  3.7 km/h 2.3 mph /  3.7 km/h 48 % 0.00 in /  0 mm
12:22 70.7 °F /  21.5 °C 50.0 °F /  10 °C 29.86 in /  1011.1 hPa NNW 1.2 mph /  1.9 km/h 1.2 mph /  1.9 km/h 48 % 0.00 in /  0 mm
12:27 70.6 °F /  21.4 °C 50.5 °F /  10.3 °C 29.87 in /  1011.4 hPa NW 3.5 mph /  5.6 km/h 3.5 mph /  5.6 km/h 49 % 0.00 in /  0 mm
12:32 70.9 °F /  21.6 °C 50.8 °F /  10.4 °C 29.86 in /  1011.1 hPa NW 3.5 mph /  5.6 km/h 3.5 mph /  5.6 km/h 49 % 0.00 in /  0 mm
12:37 70.8 °F /  21.6 °C 50.1 °F /  10.1 °C 29.86 in /  1011.1 hPa NW 4.6 mph /  7.4 km/h 4.6 mph /  7.4 km/h 48 % 0.00 in /  0 mm
12:43 70.8 °F /  21.6 °C 50.7 °F /  10.4 °C 29.86 in /  1011.1 hPa WNW 3.5 mph /  5.6 km/h 3.5 mph /  5.6 km/h 49 % 0.00 in /  0 mm
12:48 71.1 °F /  21.7 °C 52.0 °F /  11.1 °C 29.85 in /  1010.7 hPa NNW 2.3 mph /  3.7 km/h   51 % 0.00 in /  0 mm
12:53 71.4 °F /  21.9 °C 51.2 °F /  10.7 °C 29.85 in /  1010.7 hPa NW 2.3 mph /  3.7 km/h 2.3 mph /  3.7 km/h 49 % 0.00 in /  0 mm
12:58 71.2 °F /  21.8 °C 51.6 °F /  10.9 °C 29.85 in /  1010.7 hPa NW 3.5 mph /  5.6 km/h 3.5 mph /  5.6 km/h 50 % 0.00 in /  0 mm
13:03 71.2 °F /  21.8 °C 51.6 °F /  10.9 °C 29.84 in /  1010.4 hPa West 2.3 mph /  3.7 km/h 2.3 mph /  3.7 km/h 50 % 0.00 in /  0 mm
13:08 71.5 °F /  21.9 °C 52.4 °F /  11.3 °C 29.84 in /  1010.4 hPa West 4.6 mph /  7.4 km/h 4.6 mph /  7.4 km/h 51 % 0.00 in /  0 mm
13:13 71.4 °F /  21.9 °C 51.2 °F /  10.7 °C 29.84 in /  1010.4 hPa NNW 3.5 mph /  5.6 km/h 3.5 mph /  5.6 km/h 49 % 0.00 in /  0 mm
13:18 71.4 °F /  21.9 °C 51.2 °F /  10.7 °C 29.84 in /  1010.4 hPa WNW 3.5 mph /  5.6 km/h 3.5 mph /  5.6 km/h 49 % 0.00 in /  0 mm
13:23 71.5 °F /  21.9 °C 51.9 °F /  11.1 °C 29.84 in /  1010.4 hPa NNE 1.2 mph /  1.9 km/h 1.2 mph /  1.9 km/h 50 % 0.00 in /  0 mm
13:28 71.8 °F /  22.1 °C 51.0 °F /  10.6 °C 29.83 in /  1010 hPa NNE 4.6 mph /  7.4 km/h 4.6 mph /  7.4 km/h 48 % 0.00 in /  0 mm
13:33 71.7 °F /  22.1 °C 51.5 °F /  10.8 °C 29.83 in /  1010 hPa NW 4.0 mph /  6.4 km/h 4.0 mph /  6.4 km/h 49 % 0.00 in /  0 mm
13:38 71.9 °F /  22.2 °C 51.7 °F /  10.9 °C 29.83 in /  1010 hPa West 3.0 mph /  4.8 km/h 3.0 mph /  4.8 km/h 49 % 0.00 in /  0 mm
13:43 71.8 °F /  22.1 °C 51.6 °F /  10.9 °C 29.83 in /  1010 hPa WNW 1.2 mph /  1.9 km/h   49 % 0.00 in /  0 mm
13:48 72.2 °F /  22.3 °C 52.0 °F /  11.1 °C 29.82 in /  1009.7 hPa NW 5.8 mph /  9.3 km/h 5.8 mph /  9.3 km/h 49 % 0.00 in /  0 mm
13:53 72.2 °F /  22.3 °C 51.4 °F /  10.8 °C 29.82 in /  1009.7 hPa Calm   0.1 mph /  0.2 km/h 48 % 0.00 in /  0 mm
13:58 72.3 °F /  22.4 °C 51.5 °F /  10.8 °C 29.82 in /  1009.7 hPa NW 3.5 mph /  5.6 km/h 3.5 mph /  5.6 km/h 48 % 0.00 in /  0 mm
14:03 72.3 °F /  22.4 °C 51.5 °F /  10.8 °C 29.82 in /  1009.7 hPa NW 2.3 mph /  3.7 km/h 2.3 mph /  3.7 km/h 48 % 0.00 in /  0 mm
14:08 72.3 °F /  22.4 °C 51.5 °F /  10.8 °C 29.82 in /  1009.7 hPa West 3.5 mph /  5.6 km/h 3.5 mph /  5.6 km/h 48 % 0.00 in /  0 mm
14:13 72.3 °F /  22.4 °C 51.5 °F /  10.8 °C 29.82 in /  1009.7 hPa WNW 2.3 mph /  3.7 km/h 2.3 mph /  3.7 km/h 48 % 0.00 in /  0 mm
14:18 72.4 °F /  22.4 °C 51.6 °F /  10.9 °C 29.81 in /  1009.4 hPa NNW 2.3 mph /  3.7 km/h 2.3 mph /  3.7 km/h 48 % 0.00 in /  0 mm
14:23 72.4 °F /  22.4 °C 51.0 °F /  10.6 °C 29.81 in /  1009.4 hPa NW 2.3 mph /  3.7 km/h 2.3 mph /  3.7 km/h 47 % 0.00 in /  0 mm
14:28 72.4 °F /  22.4 °C 51.0 °F /  10.6 °C 29.81 in /  1009.4 hPa West 2.3 mph /  3.7 km/h 2.3 mph /  3.7 km/h 47 % 0.00 in /  0 mm
14:33 72.2 °F /  22.3 °C 50.8 °F /  10.4 °C 29.81 in /  1009.4 hPa NW 3.5 mph /  5.6 km/h 3.5 mph /  5.6 km/h 47 % 0.00 in /  0 mm
14:38 72.3 °F /  22.4 °C 51.5 °F /  10.8 °C 29.81 in /  1009.4 hPa NW 2.3 mph /  3.7 km/h 2.3 mph /  3.7 km/h 48 % 0.00 in /  0 mm
14:43 72.2 °F /  22.3 °C 50.3 °F /  10.2 °C 29.81 in /  1009.4 hPa NNW 1.2 mph /  1.9 km/h   46 % 0.00 in /  0 mm
14:48 72.2 °F /  22.3 °C 50.8 °F /  10.4 °C 29.81 in /  1009.4 hPa NW 3.5 mph /  5.6 km/h 3.5 mph /  5.6 km/h 47 % 0.00 in /  0 mm
14:53 72.1 °F /  22.3 °C 50.8 °F /  10.4 °C 29.81 in /  1009.4 hPa North 3.5 mph /  5.6 km/h 3.5 mph /  5.6 km/h 47 % 0.00 in /  0 mm
14:58 72.0 °F /  22.2 °C 50.7 °F /  10.4 °C 29.81 in /  1009.4 hPa WNW 3.5 mph /  5.6 km/h 3.5 mph /  5.6 km/h 47 % 0.00 in /  0 mm
15:03 72.1 °F /  22.3 °C 50.2 °F /  10.1 °C 29.81 in /  1009.4 hPa North 1.2 mph /  1.9 km/h 1.4 mph /  2.3 km/h 46 % 0.00 in /  0 mm
15:08 72.2 °F /  22.3 °C 50.8 °F /  10.4 °C 29.80 in /  1009 hPa NW 3.5 mph /  5.6 km/h 3.5 mph /  5.6 km/h 47 % 0.00 in /  0 mm
15:13 72.2 °F /  22.3 °C 50.8 °F /  10.4 °C 29.81 in /  1009.4 hPa NNE 3.5 mph /  5.6 km/h 3.5 mph /  5.6 km/h 47 % 0.00 in /  0 mm
15:18 71.9 °F /  22.2 °C 50.0 °F /  10 °C 29.80 in /  1009 hPa NW 2.3 mph /  3.7 km/h 2.3 mph /  3.7 km/h 46 % 0.00 in /  0 mm
15:23 71.7 °F /  22.1 °C 49.8 °F /  9.9 °C 29.81 in /  1009.4 hPa WNW 2.0 mph /  3.2 km/h 2.0 mph /  3.2 km/h 46 % 0.00 in /  0 mm
15:28 71.8 °F /  22.1 °C 49.9 °F /  9.9 °C 29.81 in /  1009.4 hPa NW 3.5 mph /  5.6 km/h 3.5 mph /  5.6 km/h 46 % 0.00 in /  0 mm
15:33 71.6 °F /  22 °C 49.7 °F /  9.8 °C 29.81 in /  1009.4 hPa West 1.2 mph /  1.9 km/h 1.2 mph /  1.9 km/h 46 % 0.00 in /  0 mm
15:38 71.3 °F /  21.8 °C 49.4 °F /  9.7 °C 29.81 in /  1009.4 hPa NW 3.5 mph /  5.6 km/h 3.5 mph /  5.6 km/h 46 % 0.00 in /  0 mm
15:43 71.0 °F /  21.7 °C 49.7 °F /  9.8 °C 29.81 in /  1009.4 hPa West 3.5 mph /  5.6 km/h 3.5 mph /  5.6 km/h 47 % 0.00 in /  0 mm
15:48 70.9 °F /  21.6 °C 49.1 °F /  9.5 °C 29.81 in /  1009.4 hPa NW 3.5 mph /  5.6 km/h 3.5 mph /  5.6 km/h 46 % 0.00 in /  0 mm
15:53 71.0 °F /  21.7 °C 50.3 °F /  10.2 °C 29.81 in /  1009.4 hPa NW 2.3 mph /  3.7 km/h 2.3 mph /  3.7 km/h 48 % 0.00 in /  0 mm
15:58 71.1 °F /  21.7 °C 48.7 °F /  9.3 °C 29.81 in /  1009.4 hPa West 4.6 mph /  7.4 km/h 4.6 mph /  7.4 km/h 45 % 0.00 in /  0 mm
16:03 70.7 °F /  21.5 °C 48.9 °F /  9.4 °C 29.81 in /  1009.4 hPa NW 2.3 mph /  3.7 km/h 2.3 mph /  3.7 km/h 46 % 0.00 in /  0 mm
16:08 70.5 °F /  21.4 °C 49.3 °F /  9.6 °C 29.81 in /  1009.4 hPa WNW 3.5 mph /  5.6 km/h 3.5 mph /  5.6 km/h 47 % 0.00 in /  0 mm
16:13 70.3 °F /  21.3 °C 49.1 °F /  9.5 °C 29.81 in /  1009.4 hPa WNW 3.0 mph /  4.8 km/h 3.0 mph /  4.8 km/h 47 % 0.00 in /  0 mm
16:18 70.2 °F /  21.2 °C 49.0 °F /  9.4 °C 29.81 in /  1009.4 hPa North 3.5 mph /  5.6 km/h 3.5 mph /  5.6 km/h 47 % 0.00 in /  0 mm
16:23 70.1 °F /  21.2 °C 49.5 °F /  9.7 °C 29.81 in /  1009.4 hPa WNW 2.3 mph /  3.7 km/h 2.3 mph /  3.7 km/h 48 % 0.00 in /  0 mm
16:29 70.1 °F /  21.2 °C 49.5 °F /  9.7 °C 29.81 in /  1009.4 hPa WNW 1.2 mph /  1.9 km/h   48 % 0.00 in /  0 mm
16:34 69.8 °F /  21 °C 49.2 °F /  9.6 °C 29.81 in /  1009.4 hPa WNW 1.2 mph /  1.9 km/h 1.2 mph /  1.9 km/h 48 % 0.00 in /  0 mm
16:39 69.7 °F /  20.9 °C 49.1 °F /  9.5 °C 29.81 in /  1009.4 hPa WNW 3.5 mph /  5.6 km/h 3.5 mph /  5.6 km/h 48 % 0.00 in /  0 mm
16:44 69.6 °F /  20.9 °C 49.0 °F /  9.4 °C 29.81 in /  1009.4 hPa NW 4.0 mph /  6.4 km/h 4.0 mph /  6.4 km/h 48 % 0.00 in /  0 mm
16:49 69.4 °F /  20.8 °C 49.4 °F /  9.7 °C 29.82 in /  1009.7 hPa NW 2.3 mph /  3.7 km/h 2.3 mph /  3.7 km/h 49 % 0.00 in /  0 mm
16:54 69.1 °F /  20.6 °C 49.1 °F /  9.5 °C 29.82 in /  1009.7 hPa NW 1.2 mph /  1.9 km/h 1.2 mph /  1.9 km/h 49 % 0.00 in /  0 mm
16:59 68.9 °F /  20.5 °C 49.5 °F /  9.7 °C 29.82 in /  1009.7 hPa Calm     50 % 0.00 in /  0 mm
17:04 68.6 °F /  20.3 °C 49.7 °F /  9.8 °C 29.82 in /  1009.7 hPa Calm     51 % 0.00 in /  0 mm
17:09 68.6 °F /  20.3 °C 49.7 °F /  9.8 °C 29.83 in /  1010 hPa Calm     51 % 0.00 in /  0 mm
17:14 68.5 °F /  20.3 °C 49.7 °F /  9.8 °C 29.83 in /  1010 hPa Calm     51 % 0.00 in /  0 mm
17:19 68.2 °F /  20.1 °C 49.4 °F /  9.7 °C 29.83 in /  1010 hPa Calm     51 % 0.00 in /  0 mm
17:24 67.9 °F /  19.9 °C 49.1 °F /  9.5 °C 29.83 in /  1010 hPa NW 2.3 mph /  3.7 km/h 2.3 mph /  3.7 km/h 51 % 0.00 in /  0 mm
17:29 67.5 °F /  19.7 °C 48.7 °F /  9.3 °C 29.83 in /  1010 hPa NW 2.3 mph /  3.7 km/h 2.3 mph /  3.7 km/h 51 % 0.00 in /  0 mm
17:34 66.9 °F /  19.4 °C 48.7 °F /  9.3 °C 29.83 in /  1010 hPa WNW 2.3 mph /  3.7 km/h 2.3 mph /  3.7 km/h 52 % 0.00 in /  0 mm
17:39 66.5 °F /  19.2 °C 48.8 °F /  9.3 °C 29.83 in /  1010 hPa WNW 1.2 mph /  1.9 km/h 1.2 mph /  1.9 km/h 53 % 0.00 in /  0 mm
17:44 66.0 °F /  18.9 °C 48.4 °F /  9.1 °C 29.83 in /  1010 hPa Calm     53 % 0.00 in /  0 mm
17:49 65.7 °F /  18.7 °C 48.6 °F /  9.2 °C 29.84 in /  1010.4 hPa NW 1.2 mph /  1.9 km/h 1.2 mph /  1.9 km/h 54 % 0.00 in /  0 mm
17:54 65.3 °F /  18.5 °C 48.2 °F /  9 °C 29.84 in /  1010.4 hPa NW 1.2 mph /  1.9 km/h 1.2 mph /  1.9 km/h 54 % 0.00 in /  0 mm
17:59 65.0 °F /  18.3 °C 47.9 °F /  8.8 °C 29.84 in /  1010.4 hPa NW 1.2 mph /  1.9 km/h 1.2 mph /  1.9 km/h 54 % 0.00 in /  0 mm
18:04 64.6 °F /  18.1 °C 47.6 °F /  8.7 °C 29.84 in /  1010.4 hPa NW 1.2 mph /  1.9 km/h 1.2 mph /  1.9 km/h 54 % 0.00 in /  0 mm
18:09 64.2 °F /  17.9 °C 47.7 °F /  8.7 °C 29.84 in /  1010.4 hPa NW 1.2 mph /  1.9 km/h 1.2 mph /  1.9 km/h 55 % 0.00 in /  0 mm
18:14 64.1 °F /  17.8 °C 47.6 °F /  8.7 °C 29.84 in /  1010.4 hPa West 1.2 mph /  1.9 km/h 1.2 mph /  1.9 km/h 55 % 0.00 in /  0 mm
18:19 63.9 °F /  17.7 °C 47.9 °F /  8.8 °C 29.85 in /  1010.7 hPa Calm     56 % 0.00 in /  0 mm
18:24 63.7 °F /  17.6 °C 47.7 °F /  8.7 °C 29.84 in /  1010.4 hPa West 1.2 mph /  1.9 km/h   56 % 0.00 in /  0 mm
18:29 63.3 °F /  17.4 °C 47.8 °F /  8.8 °C 29.85 in /  1010.7 hPa West 1.2 mph /  1.9 km/h 1.2 mph /  1.9 km/h 57 % 0.00 in /  0 mm
18:34 62.8 °F /  17.1 °C 47.8 °F /  8.8 °C 29.85 in /  1010.7 hPa Calm     58 % 0.00 in /  0 mm
18:39 62.5 °F /  16.9 °C 47.5 °F /  8.6 °C 29.85 in /  1010.7 hPa Calm     58 % 0.00 in /  0 mm
18:44 62.2 °F /  16.8 °C 47.7 °F /  8.7 °C 29.85 in /  1010.7 hPa Calm     59 % 0.00 in /  0 mm
18:49 61.8 °F /  16.6 °C 47.3 °F /  8.5 °C 29.85 in /  1010.7 hPa Calm     59 % 0.00 in /  0 mm
18:54 61.7 °F /  16.5 °C 47.2 °F /  8.4 °C 29.85 in /  1010.7 hPa Calm     59 % 0.00 in /  0 mm
18:59 61.8 °F /  16.6 °C 47.3 °F /  8.5 °C 29.86 in /  1011.1 hPa Calm     59 % 0.00 in /  0 mm
19:04 61.6 °F /  16.4 °C 47.1 °F /  8.4 °C 29.86 in /  1011.1 hPa Calm     59 % 0.00 in /  0 mm
19:09 61.2 °F /  16.2 °C 46.8 °F /  8.2 °C 29.86 in /  1011.1 hPa Calm     59 % 0.00 in /  0 mm
19:14 60.7 °F /  15.9 °C 47.2 °F /  8.4 °C 29.86 in /  1011.1 hPa Calm     61 % 0.00 in /  0 mm
19:19 60.2 °F /  15.7 °C 47.6 °F /  8.7 °C 29.86 in /  1011.1 hPa Calm     63 % 0.00 in /  0 mm
19:24 59.8 °F /  15.4 °C 46.7 °F /  8.2 °C 29.86 in /  1011.1 hPa Calm     62 % 0.00 in /  0 mm
19:29 60.5 °F /  15.8 °C 46.5 °F /  8.1 °C 29.86 in /  1011.1 hPa Calm     60 % 0.00 in /  0 mm
19:34 60.7 °F /  15.9 °C 45.8 °F /  7.7 °C 29.86 in /  1011.1 hPa Calm     58 % 0.00 in /  0 mm
19:39 60.9 °F /  16.1 °C 45.1 °F /  7.3 °C 29.87 in /  1011.4 hPa Calm     56 % 0.00 in /  0 mm
19:44 61.0 °F /  16.1 °C 44.7 °F /  7.1 °C 29.87 in /  1011.4 hPa Calm     55 % 0.00 in /  0 mm
19:49 61.0 °F /  16.1 °C 43.7 °F /  6.5 °C 29.87 in /  1011.4 hPa NW 1.2 mph /  1.9 km/h 1.2 mph /  1.9 km/h 53 % 0.00 in /  0 mm
19:54 60.9 °F /  16.1 °C 43.6 °F /  6.4 °C 29.87 in /  1011.4 hPa Calm     53 % 0.00 in /  0 mm
19:59 60.7 °F /  15.9 °C 43.5 °F /  6.4 °C 29.87 in /  1011.4 hPa Calm     53 % 0.00 in /  0 mm
20:04 60.3 °F /  15.7 °C 43.1 °F /  6.2 °C 29.87 in /  1011.4 hPa NW 1.2 mph /  1.9 km/h 1.2 mph /  1.9 km/h 53 % 0.00 in /  0 mm
20:09 59.9 °F /  15.5 °C 42.7 °F /  5.9 °C 29.87 in /  1011.4 hPa NNW 1.2 mph /  1.9 km/h 1.2 mph /  1.9 km/h 53 % 0.00 in /  0 mm
20:14 59.7 °F /  15.4 °C 42.5 °F /  5.8 °C 29.87 in /  1011.4 hPa Calm     53 % 0.00 in /  0 mm
20:19 59.6 °F /  15.3 °C 41.9 °F /  5.5 °C 29.88 in /  1011.7 hPa Calm     52 % 0.00 in /  0 mm
20:24 59.5 °F /  15.3 °C 41.9 °F /  5.5 °C 29.88 in /  1011.7 hPa Calm     52 % 0.00 in /  0 mm
20:29 59.1 °F /  15.1 °C 42.0 °F /  5.6 °C 29.88 in /  1011.7 hPa Calm     53 % 0.00 in /  0 mm
20:34 58.6 °F /  14.8 °C 42.5 °F /  5.8 °C 29.89 in /  1012.1 hPa Calm     55 % 0.00 in /  0 mm
20:39 58.0 °F /  14.4 °C 42.4 °F /  5.8 °C 29.89 in /  1012.1 hPa Calm     56 % 0.00 in /  0 mm
20:44 57.3 °F /  14.1 °C 42.6 °F /  5.9 °C 29.88 in /  1011.7 hPa Calm     58 % 0.00 in /  0 mm
20:49 56.8 °F /  13.8 °C 42.2 °F /  5.7 °C 29.89 in /  1012.1 hPa Calm     58 % 0.00 in /  0 mm
20:54 56.5 °F /  13.6 °C 42.8 °F /  6 °C 29.89 in /  1012.1 hPa Calm     60 % 0.00 in /  0 mm
20:59 56.2 °F /  13.4 °C 42.5 °F /  5.8 °C 29.89 in /  1012.1 hPa Calm     60 % 0.00 in /  0 mm
21:04 56.1 °F /  13.4 °C 42.0 °F /  5.6 °C 29.89 in /  1012.1 hPa Calm     59 % 0.00 in /  0 mm
21:09 56.6 °F /  13.7 °C 42.4 °F /  5.8 °C 29.90 in /  1012.4 hPa Calm     59 % 0.00 in /  0 mm
21:14 56.9 °F /  13.8 °C 41.8 °F /  5.4 °C 29.90 in /  1012.4 hPa Calm     57 % 0.00 in /  0 mm
21:19 56.8 °F /  13.8 °C 42.2 °F /  5.7 °C 29.90 in /  1012.4 hPa Calm     58 % 0.00 in /  0 mm
21:24 56.5 °F /  13.6 °C 41.4 °F /  5.2 °C 29.91 in /  1012.8 hPa Calm     57 % 0.00 in /  0 mm
21:29 55.9 °F /  13.3 °C 41.8 °F /  5.4 °C 29.91 in /  1012.8 hPa Calm     59 % 0.00 in /  0 mm
21:34 55.4 °F /  13 °C 43.4 °F /  6.3 °C 29.91 in /  1012.8 hPa Calm     64 % 0.00 in /  0 mm
21:39 54.7 °F /  12.6 °C 42.8 °F /  6 °C 29.91 in /  1012.8 hPa Calm     64 % 0.00 in /  0 mm
21:44 54.1 °F /  12.3 °C 42.6 °F /  5.9 °C 29.91 in /  1012.8 hPa Calm     65 % 0.00 in /  0 mm
21:49 53.7 °F /  12.1 °C 42.6 °F /  5.9 °C 29.91 in /  1012.8 hPa Calm     66 % 0.00 in /  0 mm
21:54 53.1 °F /  11.7 °C 43.2 °F /  6.2 °C 29.91 in /  1012.8 hPa Calm     69 % 0.00 in /  0 mm
21:59 52.5 °F /  11.4 °C 43.0 °F /  6.1 °C 29.92 in /  1013.1 hPa Calm     70 % 0.00 in /  0 mm
22:04 52.1 °F /  11.2 °C 43.0 °F /  6.1 °C 29.92 in /  1013.1 hPa Calm     71 % 0.00 in /  0 mm
22:09 51.7 °F /  10.9 °C 43.0 °F /  6.1 °C 29.92 in /  1013.1 hPa Calm     72 % 0.00 in /  0 mm
22:14 51.4 °F /  10.8 °C 42.7 °F /  5.9 °C 29.92 in /  1013.1 hPa Calm     72 % 0.00 in /  0 mm
22:19 51.2 °F /  10.7 °C 43.2 °F /  6.2 °C 29.92 in /  1013.1 hPa Calm     74 % 0.00 in /  0 mm
22:24 51.0 °F /  10.6 °C 43.0 °F /  6.1 °C 29.92 in /  1013.1 hPa Calm     74 % 0.00 in /  0 mm
22:30 50.7 °F /  10.4 °C 42.7 °F /  5.9 °C 29.92 in /  1013.1 hPa Calm     74 % 0.00 in /  0 mm
22:35 50.5 °F /  10.3 °C 42.2 °F /  5.7 °C 29.92 in /  1013.1 hPa Calm     73 % 0.00 in /  0 mm
22:40 50.6 °F /  10.3 °C 41.5 °F /  5.3 °C 29.92 in /  1013.1 hPa Calm     71 % 0.00 in /  0 mm
22:45 50.5 °F /  10.3 °C 41.4 °F /  5.2 °C 29.92 in /  1013.1 hPa Calm     71 % 0.00 in /  0 mm
22:50 50.5 °F /  10.3 °C 41.1 °F /  5.1 °C 29.93 in /  1013.4 hPa Calm     70 % 0.00 in /  0 mm
22:55 50.5 °F /  10.3 °C 41.1 °F /  5.1 °C 29.93 in /  1013.4 hPa Calm     70 % 0.00 in /  0 mm
23:00 50.5 °F /  10.3 °C 41.4 °F /  5.2 °C 29.94 in /  1013.8 hPa Calm     71 % 0.00 in /  0 mm
23:05 50.2 °F /  10.1 °C 41.5 °F /  5.3 °C 29.94 in /  1013.8 hPa Calm     72 % 0.00 in /  0 mm
23:10 49.9 °F /  9.9 °C 41.6 °F /  5.3 °C 29.94 in /  1013.8 hPa Calm     73 % 0.00 in /  0 mm
23:15 49.7 °F /  9.8 °C 41.4 °F /  5.2 °C 29.94 in /  1013.8 hPa Calm     73 % 0.00 in /  0 mm
23:20 49.3 °F /  9.6 °C 41.0 °F /  5 °C 29.94 in /  1013.8 hPa Calm     73 % 0.00 in /  0 mm
23:25 49.0 °F /  9.4 °C 41.4 °F /  5.2 °C 29.94 in /  1013.8 hPa Calm     75 % 0.00 in /  0 mm
23:30 48.8 °F /  9.3 °C 41.2 °F /  5.1 °C 29.94 in /  1013.8 hPa Calm     75 % 0.00 in /  0 mm
23:35 48.9 °F /  9.4 °C 41.7 °F /  5.4 °C 29.94 in /  1013.8 hPa Calm     76 % 0.00 in /  0 mm
23:40 49.1 °F /  9.5 °C 41.9 °F /  5.5 °C 29.94 in /  1013.8 hPa Calm     76 % 0.00 in /  0 mm
23:45 49.3 °F /  9.6 °C 41.7 °F /  5.4 °C 29.94 in /  1013.8 hPa Calm     75 % 0.00 in /  0 mm
23:50 49.3 °F /  9.6 °C 41.7 °F /  5.4 °C 29.94 in /  1013.8 hPa Calm     75 % 0.00 in /  0 mm
23:55 49.0 °F /  9.4 °C 41.4 °F /  5.2 °C 29.94 in /  1013.8 hPa Calm     75 % 0.00 in /  0 mm
Park Place, Exeter, Tulare County, California, USA
Compliments of Weather Underground - 2.75 mb